Hlavní strana
METAR-TAF:

METAR-TAF

Letiště :

Letiště Moskva-Šeremeťjevo

Moskva-Šeremetěvo, Rusko

zeměpisná šířka: 55-58N, zeměpisná délka: 037-25E, výška: 190 m

Aktuální stav počasí

Zpráva byla vytvořena před 35 minutami, v 05:30 UTC
Jihojihozápadní vítr 4 kt
Teplota -4°C
Vlhkost vzduchu 63%
Tlak 1043 hPa
Viditelnost 10 km a více
Žádná oblačnost pod 1500 m, nevyskytují se cumulonimby.

METAR: UUEE 160530Z 21002MPS CAVOK M04/M10 Q1043 R24C/190045 R24L/150051 NOSIG

Čas: 09:05 (06:05 UTC)

Předpověď počasí

Zpráva byla vytvořena před 1 hodinou a 6 minutami, v 04:59 UTC
Předpověď platná od 16 v 06 UTC do 17 v 06 UTC
vítr z různých směrů 2 kt
Viditelnost: 9000 m
Polojasno ve výšce 3000 ft
Změna
od 16 v 12 UTC do 16 v 14 UTC
Západojihozápadní vítr 10 kt

TAF: UUEE 160459Z 1606/1706 VRB01MPS 9000 SCT030 TX03/1612Z TNM07/1703Z BECMG 1612/1614 24005MPS

Stav a předpovědi počasí z více než 4 000 letišť (zprávy METAR a TAF).

Červené a žluté tečky na mapě představují dostupné meteorologické stanice.

Když kurzor umístíte na tečku, zobrazí se název stanice.

Pak kliknutím zobrazíte stav a předpověď počasí.

Chcete-li změnit mapu, kliknutím na zelené tlačítko se znaménkem +mapu přiblížíte, kliknutím na zelené tlačítko se znaménkem – mapu oddálíte a kliknutím na zelené šipky přejdete na sousední mapy.


METAR-TAF: